Time;durP1;ratioP1;P1;durP2;ratioP2;P2;SDS_P1;SDS_P2;PMS_P1;PMS_P2;Temp;Humidity;BMP_temperature;BMP_pressure;BME280_temperature;BME280_humidity;BME280_pressure;Samples;Min_cycle;Max_cycle;Signal;HPM_P1;HPM_P2
2022/11/04 00:00:25;;;;;;;8.18;2.78;;;10.90;99.90;;;;;;5016093;28;20194;-91
2022/11/04 00:02:50;;;;;;;6.40;2.63;;;10.90;99.90;;;;;;5004510;28;20191;-91
2022/11/04 00:05:16;;;;;;;5.60;2.90;;;10.90;99.90;;;;;;4995770;28;20651;-90
2022/11/04 00:12:23;;;;;;;4.47;3.03;;;10.90;99.90;;;;;;5007052;28;20222;-90
2022/11/04 00:13:12;;;;;;;4.82;2.38;;;10.90;99.90;;;;;;5011783;28;20663;-90
2022/11/04 00:18:22;;;;;;;6.43;2.72;;;10.90;99.90;;;;;;5007768;28;20218;-91
2022/11/04 00:29:01;;;;;;;5.13;2.80;;;10.80;99.90;;;;;;5015677;28;20226;-90
2022/11/04 00:34:11;;;;;;;7.38;3.20;;;10.80;99.90;;;;;;5006976;28;20552;-90
2022/11/04 00:36:37;;;;;;;8.50;3.28;;;10.80;99.90;;;;;;5014373;28;20215;-90
2022/11/04 00:39:03;;;;;;;6.15;3.10;;;10.80;99.90;;;;;;5014462;28;20222;-90
2022/11/04 00:41:29;;;;;;;8.70;3.00;;;10.80;99.90;;;;;;5014458;28;20183;-90
2022/11/04 00:44:01;;;;;;;6.28;3.00;;;10.80;99.90;;;;;;5013990;28;20186;-89
2022/11/04 00:46:29;;;;;;;6.53;3.05;;;10.80;99.90;;;;;;5013446;28;20230;-89
2022/11/04 00:48:55;;;;;;;8.05;3.05;;;10.80;99.90;;;;;;5005715;28;20191;-90
2022/11/04 00:51:21;;;;;;;10.13;3.08;;;10.80;99.90;;;;;;5014640;28;20184;-90
2022/11/04 00:53:47;;;;;;;9.30;3.40;;;10.80;99.90;;;;;;5014243;28;20179;-90
2022/11/04 00:56:13;;;;;;;7.70;3.40;;;10.80;99.90;;;;;;5013975;28;20171;-90
2022/11/04 00:58:40;;;;;;;6.18;2.85;;;10.80;99.90;;;;;;5014183;28;20203;-91
2022/11/04 01:01:16;;;;;;;7.68;3.50;;;10.80;99.90;;;;;;5014191;28;20179;-90
2022/11/04 01:03:51;;;;;;;7.07;3.20;;;10.90;99.90;;;;;;5014105;28;20730;-90
2022/11/04 01:06:19;;;;;;;7.32;2.90;;;10.80;99.90;;;;;;4986665;28;20650;-90
2022/11/04 01:08:45;;;;;;;6.28;3.13;;;10.90;99.90;;;;;;5014081;28;20710;-88
2022/11/04 01:11:12;;;;;;;6.38;3.13;;;10.90;99.90;;;;;;5005453;28;20647;-90
2022/11/04 01:13:40;;;;;;;4.97;2.50;;;10.90;99.90;;;;;;5010357;28;20238;-91
2022/11/04 01:16:09;;;;;;;4.20;2.70;;;10.90;99.90;;;;;;4999775;28;20186;-90
2022/11/04 01:18:35;;;;;;;5.13;2.97;;;10.90;99.90;;;;;;5013664;28;20242;-90
2022/11/04 01:21:02;;;;;;;6.63;2.85;;;10.90;99.90;;;;;;5014398;28;20578;-91
2022/11/04 01:23:28;;;;;;;6.05;2.90;;;10.90;99.90;;;;;;5005262;28;20187;-91
2022/11/04 01:25:54;;;;;;;4.32;2.50;;;10.90;99.90;;;;;;4998789;28;20285;-90
2022/11/04 01:28:20;;;;;;;5.50;2.78;;;10.80;99.90;;;;;;5013525;28;20318;-91
2022/11/04 01:30:46;;;;;;;3.95;2.63;;;10.80;99.90;;;;;;5006162;28;20195;-90
2022/11/04 01:33:12;;;;;;;5.22;3.10;;;10.80;99.90;;;;;;5012929;28;20175;-90
2022/11/04 01:35:38;;;;;;;7.70;2.75;;;10.80;99.90;;;;;;5013747;28;20646;-90
2022/11/04 01:38:04;;;;;;;8.23;3.13;;;10.80;99.90;;;;;;5013491;28;20679;-90
2022/11/04 01:40:38;;;;;;;9.55;2.97;;;10.80;99.90;;;;;;5013416;28;20664;-91
2022/11/04 01:43:16;;;;;;;4.38;2.65;;;10.80;99.90;;;;;;5013643;28;20669;-90
2022/11/04 01:45:46;;;;;;;5.75;2.90;;;10.80;99.90;;;;;;5012066;28;20240;-91
2022/11/04 01:48:23;;;;;;;9.93;2.70;;;10.80;99.90;;;;;;5013176;28;20210;-91
2022/11/04 01:50:50;;;;;;;7.55;2.83;;;10.90;99.90;;;;;;5012906;28;20179;-90
2022/11/04 01:53:39;;;;;;;4.05;2.83;;;10.90;99.90;;;;;;5013042;28;20187;-91
2022/11/04 01:56:13;;;;;;;6.05;3.03;;;10.90;99.90;;;;;;4999449;28;20194;-91
2022/11/04 01:58:51;;;;;;;5.80;2.60;;;10.80;99.90;;;;;;5013396;28;20199;-91
2022/11/04 02:01:17;;;;;;;4.63;3.00;;;10.90;99.90;;;;;;5013300;28;20193;-92
2022/11/04 02:03:48;;;;;;;4.25;2.53;;;10.90;99.90;;;;;;5013803;28;20194;-91
2022/11/04 02:06:17;;;;;;;7.15;2.67;;;10.90;99.90;;;;;;5014007;28;20179;-93
2022/11/04 02:08:44;;;;;;;7.50;2.85;;;10.90;99.90;;;;;;5014119;28;20193;-91
2022/11/04 02:12:48;;;;;;;5.60;2.40;;;10.90;99.90;;;;;;5000272;28;20191;-92
2022/11/04 02:13:56;;;;;;;6.10;2.67;;;10.90;99.90;;;;;;4976003;28;20208;-91
2022/11/04 02:16:44;;;;;;;3.47;2.20;;;11.00;99.90;;;;;;4976346;28;20237;-91
2022/11/04 02:19:48;;;;;;;4.88;2.05;;;11.10;99.90;;;;;;4974649;28;20660;-91
2022/11/04 02:22:33;;;;;;;4.05;2.50;;;11.20;99.90;;;;;;4962595;28;20283;-89
2022/11/04 02:25:31;;;;;;;6.68;1.95;;;11.20;99.90;;;;;;5005734;28;20200;-91
2022/11/04 02:28:08;;;;;;;6.90;2.70;;;11.20;99.90;;;;;;5013027;28;20247;-91
2022/11/04 02:30:59;;;;;;;7.97;2.50;;;11.10;99.90;;;;;;5013351;28;20175;-91
2022/11/04 02:33:51;;;;;;;5.70;2.40;;;11.20;99.90;;;;;;5013117;28;20255;-91
2022/11/04 02:36:45;;;;;;;5.47;2.33;;;11.20;99.90;;;;;;5013395;28;20686;-90
2022/11/04 02:39:54;;;;;;;5.25;2.22;;;11.20;99.90;;;;;;5012850;28;20229;-92
2022/11/04 02:42:48;;;;;;;6.20;2.60;;;11.10;99.90;;;;;;4918249;29;20189;-91
2022/11/04 02:45:39;;;;;;;3.90;2.08;;;11.10;99.90;;;;;;5012656;28;20190;-91
2022/11/04 02:48:34;;;;;;;8.93;2.83;;;11.00;99.90;;;;;;5001409;28;20226;-91
2022/11/04 02:51:21;;;;;;;4.93;2.58;;;11.00;99.90;;;;;;5014320;28;20167;-92
2022/11/04 02:53:53;;;;;;;7.78;2.53;;;11.00;99.90;;;;;;5002659;28;20201;-91
2022/11/04 02:56:21;;;;;;;4.07;2.22;;;11.00;99.90;;;;;;5012346;28;20179;-93
2022/11/04 02:59:25;;;;;;;8.27;2.58;;;10.90;99.90;;;;;;5012460;28;20206;-91
2022/11/04 03:01:55;;;;;;;5.53;2.40;;;10.90;99.90;;;;;;4988038;28;20182;-91
2022/11/04 03:04:27;;;;;;;6.05;2.83;;;10.90;99.90;;;;;;5004927;28;20194;-92
2022/11/04 03:06:56;;;;;;;5.00;2.75;;;10.90;99.90;;;;;;4993509;28;20561;-91
2022/11/04 03:09:23;;;;;;;6.15;2.63;;;10.90;99.90;;;;;;5008333;28;20193;-93
2022/11/04 03:11:56;;;;;;;5.63;2.80;;;10.80;99.90;;;;;;5012707;28;20186;-92
2022/11/04 03:14:29;;;;;;;3.67;2.50;;;10.90;99.90;;;;;;5012659;28;20262;-93
2022/11/04 03:16:59;;;;;;;5.03;2.67;;;10.90;99.90;;;;;;4996155;28;20294;-92
2022/11/04 03:19:44;;;;;;;4.10;2.47;;;10.90;99.90;;;;;;5012572;28;20274;-92
2022/11/04 03:22:21;;;;;;;4.32;2.88;;;10.80;99.90;;;;;;5012879;28;20179;-94
2022/11/04 03:24:48;;;;;;;5.88;2.88;;;10.80;99.90;;;;;;5004418;28;20195;-93
2022/11/04 03:27:52;;;;;;;4.45;2.97;;;10.80;99.90;;;;;;5012036;28;20226;-92
2022/11/04 03:30:21;;;;;;;4.32;2.83;;;10.70;99.90;;;;;;5012643;28;20179;-93
2022/11/04 03:32:52;;;;;;;4.10;2.72;;;10.70;99.90;;;;;;5012595;28;20163;-93
2022/11/04 03:35:19;;;;;;;5.30;3.20;;;10.70;99.90;;;;;;5012649;28;20199;-93
2022/11/04 03:37:47;;;;;;;4.47;3.13;;;10.70;99.90;;;;;;5012486;28;20250;-92
2022/11/04 03:40:16;;;;;;;6.65;3.03;;;10.70;99.90;;;;;;5012540;28;20204;-91
2022/11/04 03:42:57;;;;;;;3.13;2.50;;;10.70;99.90;;;;;;5012622;28;20257;-90
2022/11/04 03:45:24;;;;;;;5.78;2.80;;;10.70;99.90;;;;;;5012232;28;20673;-91
2022/11/04 03:50:40;;;;;;;6.72;3.45;;;10.70;99.90;;;;;;5082703;23;20236;-89
2022/11/04 03:53:06;;;;;;;5.60;2.90;;;10.80;99.90;;;;;;4991007;28;20223;-91
2022/11/04 03:56:01;;;;;;;4.95;3.10;;;10.80;99.90;;;;;;4990997;28;20215;-88
2022/11/04 03:58:36;;;;;;;6.68;2.67;;;10.80;99.90;;;;;;4991187;28;20200;-88
2022/11/04 04:01:25;;;;;;;8.20;3.10;;;10.80;99.90;;;;;;4991197;28;20623;-88
2022/11/04 04:04:05;;;;;;;5.00;2.97;;;10.90;99.90;;;;;;4990812;28;20200;-91
2022/11/04 04:06:35;;;;;;;6.05;2.88;;;10.90;99.90;;;;;;4990916;28;20178;-89
2022/11/04 04:09:11;;;;;;;5.38;3.10;;;10.90;99.90;;;;;;4993005;28;20175;-90
2022/11/04 04:12:14;;;;;;;5.30;3.50;;;10.90;99.90;;;;;;4994834;28;20164;-89
2022/11/04 04:14:45;;;;;;;7.10;3.20;;;10.90;99.90;;;;;;4994546;28;20204;-93
2022/11/04 04:17:11;;;;;;;12.63;3.63;;;10.80;99.90;;;;;;4994499;28;20223;-89
2022/11/04 04:19:41;;;;;;;7.03;3.22;;;10.80;99.90;;;;;;4993819;28;20590;-88
2022/11/04 04:22:21;;;;;;;6.93;3.10;;;10.90;99.90;;;;;;4994520;28;20174;-87
2022/11/04 04:27:36;;;;;;;4.20;2.72;;;10.80;99.90;;;;;;4995427;28;20883;-90
2022/11/04 04:30:15;;;;;;;7.10;2.88;;;10.90;99.90;;;;;;4997709;28;20303;-89
2022/11/04 04:32:45;;;;;;;6.45;3.10;;;10.90;99.90;;;;;;4997389;28;20227;-87
2022/11/04 04:44:58;;;;;;;4.88;2.85;;;10.90;99.90;;;;;;4998583;28;20529;-88
2022/11/04 04:46:27;;;;;;;4.00;1.95;;;10.80;99.90;;;;;;4998743;28;20168;-90
2022/11/04 04:48:53;;;;;;;3.47;1.90;;;10.80;99.90;;;;;;4996665;28;20215;-89
2022/11/04 04:51:21;;;;;;;2.22;1.85;;;10.80;99.90;;;;;;4997325;28;20184;-89
2022/11/04 04:53:47;;;;;;;2.58;1.80;;;10.80;99.90;;;;;;4997039;28;20191;-90
2022/11/04 04:56:13;;;;;;;3.28;1.77;;;10.80;99.90;;;;;;4996452;28;20534;-88
2022/11/04 04:58:38;;;;;;;2.55;1.88;;;10.80;99.90;;;;;;4996792;28;20216;-84
2022/11/04 05:01:04;;;;;;;2.03;1.67;;;10.80;99.90;;;;;;4996662;28;20179;-88
2022/11/04 05:03:30;;;;;;;1.98;1.52;;;10.90;99.90;;;;;;4996659;28;20184;-88
2022/11/04 05:05:58;;;;;;;2.42;1.63;;;10.80;99.90;;;;;;4996588;28;20211;-89
2022/11/04 05:08:24;;;;;;;1.75;1.40;;;10.80;99.90;;;;;;4996709;28;20184;-89
2022/11/04 05:10:51;;;;;;;2.30;1.55;;;10.80;99.90;;;;;;4996466;28;20198;-87
2022/11/04 05:13:25;;;;;;;1.65;1.27;;;10.80;99.90;;;;;;4996848;28;20184;-88
2022/11/04 05:15:52;;;;;;;2.22;1.63;;;10.80;99.90;;;;;;4996550;28;20597;-88
2022/11/04 05:18:18;;;;;;;2.53;1.10;;;10.80;99.90;;;;;;4996383;28;20219;-88
2022/11/04 05:20:44;;;;;;;2.83;1.70;;;10.70;99.90;;;;;;4997400;28;20502;-88
2022/11/04 05:23:11;;;;;;;2.38;1.48;;;10.70;99.90;;;;;;4996653;28;20207;-89
2022/11/04 05:25:41;;;;;;;3.42;1.50;;;10.70;99.90;;;;;;4995779;28;20574;-89
2022/11/04 05:28:07;;;;;;;1.55;1.20;;;10.70;99.90;;;;;;4976908;28;20177;-88
2022/11/04 05:30:33;;;;;;;3.35;1.30;;;10.70;99.90;;;;;;4976878;28;20200;-88
2022/11/04 05:32:59;;;;;;;3.03;1.40;;;10.70;99.90;;;;;;4976683;28;20180;-88
2022/11/04 05:35:25;;;;;;;2.30;1.48;;;10.70;99.90;;;;;;4976616;28;20646;-86
2022/11/04 05:37:51;;;;;;;2.35;1.42;;;10.70;99.90;;;;;;4976753;28;20181;-89
2022/11/04 05:40:17;;;;;;;2.00;1.80;;;10.60;99.90;;;;;;4976791;28;20220;-89
2022/11/04 05:43:02;;;;;;;2.05;1.70;;;10.60;99.90;;;;;;4982073;28;20172;-90
2022/11/04 05:45:28;;;;;;;2.80;1.95;;;10.60;99.90;;;;;;4978075;28;20180;-92
2022/11/04 05:48:01;;;;;;;2.03;1.83;;;10.60;99.90;;;;;;4976959;28;20262;-92
2022/11/04 05:50:28;;;;;;;1.75;1.65;;;10.50;99.90;;;;;;4976437;28;20236;-92
2022/11/04 05:52:57;;;;;;;3.95;1.80;;;10.50;99.90;;;;;;4976866;28;20619;-92
2022/11/04 05:55:23;;;;;;;3.47;1.98;;;10.50;99.90;;;;;;4976667;28;20182;-91
2022/11/04 05:57:48;;;;;;;2.00;1.80;;;10.40;99.90;;;;;;4993300;28;20187;-91
2022/11/04 06:00:15;;;;;;;4.00;2.20;;;10.40;99.90;;;;;;4996087;28;20215;-86
2022/11/04 06:02:40;;;;;;;2.20;1.85;;;10.40;99.90;;;;;;4996121;28;20195;-91
2022/11/04 06:05:07;;;;;;;2.67;1.88;;;10.30;99.90;;;;;;4995879;28;20527;-91
2022/11/04 06:07:33;;;;;;;3.33;1.83;;;10.30;99.90;;;;;;4995747;28;20234;-90
2022/11/04 06:09:59;;;;;;;3.22;1.95;;;10.30;99.90;;;;;;4995978;28;20180;-91
2022/11/04 06:12:26;;;;;;;2.33;1.77;;;10.30;99.90;;;;;;4995830;28;20182;-90
2022/11/04 06:14:51;;;;;;;2.70;1.90;;;10.30;99.90;;;;;;4995921;28;20180;-91
2022/11/04 06:17:20;;;;;;;2.70;1.80;;;10.30;99.90;;;;;;4995877;28;20622;-92
2022/11/04 06:19:46;;;;;;;2.00;1.80;;;10.20;99.90;;;;;;4996380;28;20262;-91
2022/11/04 06:22:16;;;;;;;2.03;1.63;;;10.20;99.90;;;;;;4996190;28;20172;-87
2022/11/04 06:24:42;;;;;;;3.53;2.00;;;10.10;99.90;;;;;;4995986;28;20164;-87
2022/11/04 06:27:09;;;;;;;1.88;1.70;;;10.10;99.90;;;;;;5008139;28;20741;-87
2022/11/04 06:29:39;;;;;;;2.00;1.60;;;10.10;99.90;;;;;;5014795;28;20194;-88
2022/11/04 06:32:34;;;;;;;2.78;1.70;;;10.10;99.90;;;;;;5014541;28;20176;-91
2022/11/04 06:35:00;;;;;;;2.63;1.98;;;10.10;99.90;;;;;;5014726;28;20182;-92
2022/11/04 06:37:25;;;;;;;2.17;1.60;;;10.00;99.90;;;;;;5014703;28;20509;-88
2022/11/04 06:39:51;;;;;;;1.77;1.60;;;10.00;99.90;;;;;;5014593;28;20210;-89
2022/11/04 06:42:19;;;;;;;1.70;1.60;;;10.00;99.90;;;;;;5014750;28;20207;-86
2022/11/04 06:44:45;;;;;;;2.20;1.50;;;10.00;99.90;;;;;;5014686;28;20253;-89
2022/11/04 06:47:10;;;;;;;2.67;1.58;;;10.00;99.90;;;;;;5015729;28;20171;-88
2022/11/04 06:49:36;;;;;;;3.67;1.60;;;10.00;99.90;;;;;;5014147;28;20226;-88
2022/11/04 06:52:04;;;;;;;2.53;1.55;;;10.00;99.90;;;;;;5014535;28;20175;-87
2022/11/04 06:54:30;;;;;;;1.75;1.52;;;10.00;99.90;;;;;;5014455;28;20622;-89
2022/11/04 06:56:55;;;;;;;2.00;1.75;;;10.00;99.90;;;;;;5002336;28;20184;-89
2022/11/04 06:59:22;;;;;;;1.67;1.58;;;10.00;99.90;;;;;;4995769;28;20230;-89
2022/11/04 07:01:50;;;;;;;2.22;1.80;;;10.00;99.90;;;;;;4994643;28;20184;-86
2022/11/04 07:04:17;;;;;;;2.00;1.75;;;9.90;99.90;;;;;;4994732;28;20264;-88
2022/11/04 07:06:43;;;;;;;4.07;1.80;;;10.00;99.90;;;;;;4994833;28;20199;-88
2022/11/04 07:09:11;;;;;;;4.28;1.80;;;10.00;99.90;;;;;;4994804;28;20238;-89
2022/11/04 07:11:37;;;;;;;2.13;1.92;;;9.90;99.90;;;;;;4994469;28;20672;-88
2022/11/04 07:14:03;;;;;;;1.88;1.70;;;9.90;99.90;;;;;;4994775;28;20188;-88
2022/11/04 07:16:28;;;;;;;1.80;1.70;;;9.90;99.90;;;;;;4994698;28;20611;-88
2022/11/04 07:18:54;;;;;;;1.65;1.55;;;9.90;99.90;;;;;;4995749;28;20203;-87
2022/11/04 07:21:21;;;;;;;3.72;1.73;;;10.00;99.90;;;;;;4994432;28;20199;-91
2022/11/04 07:23:47;;;;;;;2.17;1.92;;;10.10;99.90;;;;;;4994633;28;20265;-87
2022/11/04 07:26:13;;;;;;;4.53;2.05;;;10.10;99.90;;;;;;5002181;28;20234;-90
2022/11/04 07:28:39;;;;;;;3.67;2.00;;;10.10;99.90;;;;;;5014194;28;20584;-89
2022/11/04 07:31:07;;;;;;;2.92;1.75;;;10.20;99.90;;;;;;5014396;28;20175;-87
2022/11/04 07:33:36;;;;;;;3.00;1.73;;;10.20;99.90;;;;;;5014223;28;20176;-87
2022/11/04 07:36:07;;;;;;;2.30;1.65;;;10.10;99.90;;;;;;5014119;28;20184;-88
2022/11/04 07:38:33;;;;;;;3.22;1.98;;;10.10;99.90;;;;;;5014315;28;20186;-89
2022/11/04 07:41:01;;;;;;;1.92;1.73;;;10.20;99.90;;;;;;5014095;28;20175;-88
2022/11/04 07:43:28;;;;;;;4.40;1.55;;;10.20;99.90;;;;;;5015287;28;20171;-87
2022/11/04 07:46:05;;;;;;;2.33;1.80;;;10.20;99.90;;;;;;5017807;28;20179;-89
2022/11/04 07:48:32;;;;;;;2.00;1.60;;;10.20;99.90;;;;;;5018104;28;20182;-88
2022/11/04 07:50:59;;;;;;;1.83;1.55;;;10.20;99.90;;;;;;5017598;28;20175;-88
2022/11/04 07:53:26;;;;;;;2.42;1.85;;;10.20;99.90;;;;;;5017616;28;20183;-89
2022/11/04 07:55:52;;;;;;;2.00;1.70;;;10.30;99.90;;;;;;5014573;28;20260;-88
2022/11/04 07:58:19;;;;;;;2.35;1.67;;;10.30;99.90;;;;;;4998158;28;20219;-88
2022/11/04 08:00:44;;;;;;;1.90;1.50;;;10.30;99.90;;;;;;4998027;28;20219;-89
2022/11/04 08:03:10;;;;;;;2.15;1.73;;;10.30;99.90;;;;;;4998009;28;20600;-88
2022/11/04 08:05:36;;;;;;;2.03;1.58;;;10.40;99.90;;;;;;4997679;28;20168;-88
2022/11/04 08:08:02;;;;;;;7.05;1.70;;;10.50;99.90;;;;;;4997773;28;20176;-88
2022/11/04 08:10:28;;;;;;;1.80;1.45;;;10.50;99.90;;;;;;4997835;28;20176;-89
2022/11/04 08:12:53;;;;;;;2.03;1.60;;;10.60;99.90;;;;;;5000757;28;20180;-88
2022/11/04 08:15:19;;;;;;;1.52;1.42;;;10.60;99.90;;;;;;4998646;28;20172;-88
2022/11/04 08:17:45;;;;;;;1.73;1.63;;;10.50;99.90;;;;;;4997763;28;20184;-88
2022/11/04 08:20:11;;;;;;;5.72;1.63;;;10.50;99.90;;;;;;4997522;28;20215;-89
2022/11/04 08:22:40;;;;;;;3.53;1.80;;;10.50;99.90;;;;;;4997739;28;20175;-88
2022/11/04 08:25:05;;;;;;;2.55;1.65;;;10.50;99.90;;;;;;4997527;28;20180;-88
2022/11/04 08:27:33;;;;;;;3.35;1.42;;;10.50;99.90;;;;;;4997902;28;20202;-90
2022/11/04 08:29:59;;;;;;;2.90;1.65;;;10.50;99.90;;;;;;4997520;28;20490;-88
2022/11/04 08:32:24;;;;;;;2.42;1.70;;;10.50;99.90;;;;;;4997370;28;20180;-84
2022/11/04 08:34:50;;;;;;;3.25;1.60;;;10.50;99.90;;;;;;4996842;28;20234;-84
2022/11/04 08:37:17;;;;;;;7.80;1.80;;;10.60;99.90;;;;;;4996929;28;20191;-84
2022/11/04 08:39:42;;;;;;;4.80;1.77;;;10.60;99.90;;;;;;4997100;28;20535;-85
2022/11/04 08:42:08;;;;;;;2.90;1.60;;;10.60;99.90;;;;;;4996915;28;20183;-89
2022/11/04 08:44:38;;;;;;;7.70;1.90;;;10.60;99.90;;;;;;4997161;28;20180;-86
2022/11/04 08:47:04;;;;;;;6.05;2.05;;;10.60;99.90;;;;;;4997875;28;20164;-86
2022/11/04 08:49:30;;;;;;;6.25;1.70;;;10.60;99.90;;;;;;4990489;28;20663;-85
2022/11/04 08:52:02;;;;;;;4.07;1.63;;;10.70;99.90;;;;;;4986096;28;20180;-86
2022/11/04 08:54:28;;;;;;;4.03;1.92;;;10.70;99.90;;;;;;4992147;28;20318;-86
2022/11/04 08:56:54;;;;;;;3.55;1.73;;;10.70;99.90;;;;;;4997398;28;20227;-87
2022/11/04 08:59:20;;;;;;;2.50;1.80;;;10.70;99.90;;;;;;4990815;28;20227;-86
2022/11/04 09:01:47;;;;;;;4.15;1.52;;;10.80;99.90;;;;;;4985444;28;20175;-85
2022/11/04 09:04:20;;;;;;;7.43;1.88;;;10.80;99.90;;;;;;4981052;28;20184;-88
2022/11/04 09:06:46;;;;;;;4.70;1.90;;;10.90;99.90;;;;;;4990964;28;20191;-88
2022/11/04 09:09:14;;;;;;;3.03;2.20;;;11.00;99.90;;;;;;4996197;28;20658;-88
2022/11/04 09:11:42;;;;;;;4.32;2.20;;;11.00;99.90;;;;;;4996834;28;20172;-89
2022/11/04 09:14:36;;;;;;;5.05;2.17;;;11.00;99.90;;;;;;4951563;23;22279;-86
2022/11/04 09:17:01;;;;;;;4.53;2.25;;;11.00;99.90;;;;;;5024094;28;20710;-89
2022/11/04 09:19:27;;;;;;;2.85;1.83;;;10.90;99.90;;;;;;5018494;28;20249;-88
2022/11/04 09:21:53;;;;;;;6.80;2.15;;;10.90;99.90;;;;;;5018628;28;20183;-89
2022/11/04 09:24:19;;;;;;;6.85;2.10;;;10.90;99.90;;;;;;5018424;28;20735;-89
2022/11/04 09:26:44;;;;;;;6.15;2.00;;;10.90;99.90;;;;;;5017924;28;20187;-87
2022/11/04 09:29:10;;;;;;;2.17;1.90;;;10.90;99.90;;;;;;5018418;28;20269;-86
2022/11/04 09:31:36;;;;;;;4.55;2.50;;;10.90;99.90;;;;;;5017823;28;20182;-87
2022/11/04 09:34:02;;;;;;;3.28;2.10;;;10.90;99.90;;;;;;5017938;28;20182;-87
2022/11/04 09:36:28;;;;;;;4.78;2.47;;;10.90;99.90;;;;;;5017913;28;20183;-86
2022/11/04 09:38:54;;;;;;;7.80;2.53;;;10.90;99.90;;;;;;5018141;28;20210;-86
2022/11/04 09:41:41;;;;;;;7.43;2.65;;;11.00;99.90;;;;;;5018574;28;20175;-86
2022/11/04 09:44:18;;;;;;;7.28;2.25;;;11.00;99.90;;;;;;5017456;28;20197;-89
2022/11/04 09:46:48;;;;;;;5.63;2.10;;;11.00;99.90;;;;;;5017961;28;20221;-90
2022/11/04 09:49:15;;;;;;;4.35;1.80;;;11.00;99.90;;;;;;4995947;28;20176;-87
2022/11/04 09:51:44;;;;;;;4.63;2.42;;;11.10;99.90;;;;;;4995901;28;20176;-87
2022/11/04 09:54:42;;;;;;;3.92;2.10;;;11.10;99.90;;;;;;4995676;28;20180;-87
2022/11/04 09:57:19;;;;;;;3.80;2.30;;;11.10;99.90;;;;;;4996908;28;20164;-87
2022/11/04 09:59:46;;;;;;;6.03;2.50;;;11.10;99.90;;;;;;4995607;28;20311;-86
2022/11/04 10:02:36;;;;;;;4.95;2.15;;;11.10;99.90;;;;;;4995676;28;20230;-91
2022/11/04 10:05:22;;;;;;;5.20;1.95;;;11.20;99.90;;;;;;4995091;28;20170;-88
2022/11/04 10:08:18;;;;;;;5.32;2.22;;;11.30;99.90;;;;;;4994907;28;20207;-87
2022/11/04 10:10:56;;;;;;;6.15;2.28;;;11.40;99.90;;;;;;4995137;28;20172;-87
2022/11/04 10:13:39;;;;;;;4.13;2.08;;;11.50;99.90;;;;;;4995615;28;20225;-88
2022/11/04 10:16:23;;;;;;;8.95;2.50;;;11.50;99.90;;;;;;5007258;28;20549;-87
2022/11/04 10:19:10;;;;;;;7.25;2.42;;;11.60;99.90;;;;;;5015938;28;20199;-87
2022/11/04 10:21:35;;;;;;;6.75;2.85;;;11.60;99.90;;;;;;5014900;28;20226;-89
2022/11/04 10:24:46;;;;;;;8.43;2.40;;;11.60;99.90;;;;;;5014706;28;20179;-87
2022/11/04 10:27:20;;;;;;;11.50;2.58;;;11.70;99.90;;;;;;4946306;28;20565;-87
2022/11/04 10:29:52;;;;;;;6.88;2.75;;;11.70;99.90;;;;;;5016187;28;20175;-85
2022/11/04 10:32:50;;;;;;;6.55;2.70;;;11.70;99.90;;;;;;5030562;28;20282;-91
2022/11/04 10:36:00;;;;;;;5.72;2.97;;;11.80;99.90;;;;;;5010795;28;20275;-89
2022/11/04 10:38:40;;;;;;;9.40;2.88;;;11.80;99.90;;;;;;5031956;28;20175;-88
2022/11/04 10:41:25;;;;;;;6.53;3.00;;;11.80;99.90;;;;;;5015549;28;20186;-90
2022/11/04 10:44:09;;;;;;;6.68;3.10;;;11.80;99.90;;;;;;5019124;28;20206;-89
2022/11/04 10:46:45;;;;;;;6.40;2.80;;;11.80;99.90;;;;;;5054145;28;21006;-88
2022/11/04 10:49:52;;;;;;;8.93;2.80;;;11.80;99.90;;;;;;5054083;28;20180;-86
2022/11/04 10:52:18;;;;;;;3.30;2.40;;;11.80;99.90;;;;;;5054322;28;20177;-87
2022/11/04 10:54:46;;;;;;;3.78;2.53;;;11.70;99.90;;;;;;5054787;28;20177;-90
2022/11/04 10:57:21;;;;;;;6.03;2.33;;;11.70;99.90;;;;;;5054124;28;20174;-89
2022/11/04 11:00:04;;;;;;;7.70;2.72;;;11.70;99.90;;;;;;5054251;28;20205;-87
2022/11/04 11:02:39;;;;;;;7.22;2.50;;;11.60;99.90;;;;;;5054032;28;20235;-90
2022/11/04 11:05:16;;;;;;;5.70;2.40;;;11.60;99.90;;;;;;5054178;28;20184;-89
2022/11/04 11:07:44;;;;;;;5.22;2.40;;;11.60;99.90;;;;;;5054134;28;20177;-87
2022/11/04 11:10:25;;;;;;;5.80;2.20;;;11.60;99.90;;;;;;5055063;28;20237;-86
2022/11/04 11:13:05;;;;;;;4.95;2.17;;;11.60;99.90;;;;;;5053587;28;20203;-87
2022/11/04 11:15:36;;;;;;;5.72;2.13;;;11.70;99.90;;;;;;5037218;28;20225;-85
2022/11/04 11:18:05;;;;;;;6.38;2.65;;;11.70;99.90;;;;;;5037359;28;20167;-85
2022/11/04 11:20:33;;;;;;;4.82;2.40;;;11.80;99.90;;;;;;5037215;28;20599;-85
2022/11/04 11:23:00;;;;;;;5.95;2.35;;;11.80;99.90;;;;;;5038442;28;20175;-87
2022/11/04 11:25:29;;;;;;;4.68;2.45;;;11.80;99.90;;;;;;5041040;28;20687;-86
2022/11/04 11:28:02;;;;;;;3.47;2.20;;;11.90;99.90;;;;;;5038129;28;20197;-86
2022/11/04 11:30:44;;;;;;;6.78;2.45;;;11.80;99.90;;;;;;5037324;28;20171;-87
2022/11/04 11:33:23;;;;;;;4.93;2.20;;;11.90;99.90;;;;;;5037555;28;20269;-87
2022/11/04 11:36:11;;;;;;;4.72;2.60;;;11.80;99.90;;;;;;5039139;28;20158;-86
2022/11/04 11:38:49;;;;;;;7.15;2.65;;;11.80;99.90;;;;;;5037474;28;20181;-85
2022/11/04 11:41:17;;;;;;;8.07;2.78;;;11.80;99.90;;;;;;5037470;28;20222;-87
2022/11/04 11:43:48;;;;;;;5.88;2.00;;;11.80;99.90;;;;;;5038195;28;20175;-86
2022/11/04 11:46:22;;;;;;;4.68;2.22;;;11.80;99.90;;;;;;5058098;28;20173;-86
2022/11/04 11:48:53;;;;;;;6.00;2.67;;;11.80;99.90;;;;;;5057165;28;20270;-86
2022/11/04 11:51:29;;;;;;;8.35;2.95;;;11.80;99.90;;;;;;5056866;28;20264;-85
2022/11/04 11:54:16;;;;;;;3.90;2.10;;;11.80;99.90;;;;;;5056829;28;20236;-87
2022/11/04 11:56:51;;;;;;;3.50;2.08;;;11.90;99.90;;;;;;5058025;28;20200;-84
2022/11/04 11:59:33;;;;;;;10.73;2.53;;;11.90;99.90;;;;;;5056568;28;20240;-85
2022/11/04 12:02:33;;;;;;;4.38;2.22;;;12.00;99.90;;;;;;5037383;28;20276;-87
2022/11/04 12:04:59;;;;;;;3.67;2.42;;;12.10;99.90;;;;;;5036687;28;20186;-85
2022/11/04 12:07:42;;;;;;;2.20;2.00;;;12.10;99.90;;;;;;5036849;28;20229;-87
2022/11/04 12:10:17;;;;;;;3.30;2.15;;;12.00;99.90;;;;;;5036816;28;20171;-85
2022/11/04 12:13:01;;;;;;;3.58;2.00;;;12.10;99.90;;;;;;5036262;28;20551;-85
2022/11/04 12:16:00;;;;;;;3.80;2.10;;;12.00;99.90;;;;;;5036491;28;20214;-89
2022/11/04 12:19:01;;;;;;;5.65;1.95;;;12.00;99.90;;;;;;5036699;28;20188;-86
2022/11/04 12:22:06;;;;;;;3.85;2.00;;;12.00;99.90;;;;;;5033094;28;20198;-87
2022/11/04 12:25:09;;;;;;;3.35;1.77;;;12.00;99.90;;;;;;5016688;28;20217;-84
2022/11/04 12:27:46;;;;;;;9.55;2.10;;;12.00;99.90;;;;;;5016365;28;20191;-86
2022/11/04 12:30:16;;;;;;;5.22;1.92;;;12.00;99.90;;;;;;5015778;28;20171;-86
2022/11/04 12:33:09;;;;;;;2.45;1.67;;;12.00;99.90;;;;;;5017686;28;20602;-85
2022/11/04 12:35:53;;;;;;;4.90;1.85;;;12.00;99.90;;;;;;5016798;28;20270;-88
2022/11/04 12:38:23;;;;;;;3.17;1.90;;;12.00;99.90;;;;;;5016725;28;20602;-84
2022/11/04 12:41:28;;;;;;;4.78;1.67;;;12.00;99.90;;;;;;5017675;28;20199;-86
2022/11/04 12:44:21;;;;;;;6.10;1.58;;;12.00;99.90;;;;;;5004585;28;20521;-85
2022/11/04 12:47:00;;;;;;;2.88;1.80;;;12.10;99.90;;;;;;5016095;28;20274;-88
2022/11/04 12:49:25;;;;;;;6.93;2.05;;;12.10;99.90;;;;;;5016389;28;20617;-86
2022/11/04 12:52:15;;;;;;;4.00;1.70;;;12.10;99.90;;;;;;5022349;28;20201;-86
2022/11/04 12:54:58;;;;;;;3.10;1.55;;;12.10;99.90;;;;;;5022056;28;20279;-87
2022/11/04 12:57:33;;;;;;;3.78;1.58;;;12.10;99.90;;;;;;5035803;28;20170;-85
2022/11/04 13:00:17;;;;;;;3.88;2.15;;;12.10;99.90;;;;;;5035749;28;20300;-92
2022/11/04 13:03:08;;;;;;;3.90;1.70;;;12.20;99.90;;;;;;5035628;28;20627;-86
2022/11/04 13:05:56;;;;;;;2.03;1.50;;;12.30;99.90;;;;;;5035943;28;20557;-90
2022/11/04 13:08:30;;;;;;;4.68;1.98;;;12.40;99.90;;;;;;5035885;28;20175;-85
2022/11/04 13:11:24;;;;;;;2.35;1.80;;;12.50;99.90;;;;;;5035855;28;20526;-87
2022/11/04 13:13:58;;;;;;;2.55;1.48;;;12.60;99.90;;;;;;5035850;28;20170;-85
2022/11/04 13:16:25;;;;;;;4.38;1.50;;;12.80;99.90;;;;;;5035035;28;20744;-84
2022/11/04 13:18:52;;;;;;;3.00;1.40;;;12.90;99.90;;;;;;5035364;28;20206;-86
2022/11/04 13:21:26;;;;;;;3.95;1.77;;;13.10;99.90;;;;;;5037170;28;20162;-86
2022/11/04 13:23:57;;;;;;;2.60;1.70;;;13.10;99.90;;;;;;5035483;28;20178;-84
2022/11/04 13:26:23;;;;;;;1.80;1.40;;;13.00;99.90;;;;;;5035787;28;20170;-89
2022/11/04 13:29:13;;;;;;;8.27;2.05;;;12.80;99.90;;;;;;5035261;28;20183;-88
2022/11/04 13:31:42;;;;;;;2.67;1.63;;;12.60;99.90;;;;;;5035804;28;20598;-92
2022/11/04 13:34:34;;;;;;;2.15;1.58;;;12.50;99.90;;;;;;5035211;28;20181;-85
2022/11/04 13:37:16;;;;;;;5.47;1.50;;;12.40;99.90;;;;;;5035334;28;20202;-84
2022/11/04 13:39:53;;;;;;;3.33;1.67;;;12.30;99.90;;;;;;5035121;28;20293;-84
2022/11/04 13:42:25;;;;;;;2.90;1.50;;;12.20;99.90;;;;;;5035294;28;20193;-85
2022/11/04 13:44:55;;;;;;;2.92;1.58;;;12.10;99.90;;;;;;5034954;28;20214;-83
2022/11/04 13:47:56;;;;;;;6.90;1.80;;;12.10;99.90;;;;;;5034737;28;20167;-84
2022/11/04 13:50:39;;;;;;;4.28;1.50;;;12.10;99.90;;;;;;5021065;28;20190;-86